sensor_id;sensor_type;location;lat;lon;timestamp;pressure;altitude;pressure_sealevel;temperature;humidity
55291;BME280;41155;39.768;2.712;2023-03-01T00:01:32;101360.00;;;9.28;77.80
55291;BME280;41155;39.768;2.712;2023-03-01T00:03:58;101373.13;;;9.43;78.29
55291;BME280;41155;39.768;2.712;2023-03-01T00:06:25;101369.97;;;9.46;77.82
55291;BME280;41155;39.768;2.712;2023-03-01T00:08:50;101376.31;;;9.52;77.90
55291;BME280;41155;39.768;2.712;2023-03-01T00:11:21;101365.50;;;9.40;78.03
55291;BME280;41155;39.768;2.712;2023-03-01T00:13:50;101382.03;;;9.44;78.12
55291;BME280;41155;39.768;2.712;2023-03-01T00:16:19;101367.22;;;9.35;78.15
55291;BME280;41155;39.768;2.712;2023-03-01T00:18:45;101384.47;;;9.45;78.35
55291;BME280;41155;39.768;2.712;2023-03-01T00:21:11;101390.41;;;9.36;78.22
55291;BME280;41155;39.768;2.712;2023-03-01T00:23:37;101383.97;;;9.37;77.85
55291;BME280;41155;39.768;2.712;2023-03-01T00:26:06;101376.78;;;9.31;77.76
55291;BME280;41155;39.768;2.712;2023-03-01T00:28:32;101385.94;;;9.30;77.36
55291;BME280;41155;39.768;2.712;2023-03-01T00:31:19;101393.31;;;9.34;77.28
55291;BME280;41155;39.768;2.712;2023-03-01T00:33:45;101375.97;;;9.30;77.27
55291;BME280;41155;39.768;2.712;2023-03-01T00:36:15;101394.91;;;9.42;76.77
55291;BME280;41155;39.768;2.712;2023-03-01T00:38:43;101385.75;;;9.43;76.69
55291;BME280;41155;39.768;2.712;2023-03-01T00:41:11;101377.31;;;9.39;77.12
55291;BME280;41155;39.768;2.712;2023-03-01T00:43:37;101387.41;;;9.44;77.03
55291;BME280;41155;39.768;2.712;2023-03-01T00:46:05;101383.84;;;9.32;76.67
55291;BME280;41155;39.768;2.712;2023-03-01T00:48:32;101372.22;;;9.31;76.96
55291;BME280;41155;39.768;2.712;2023-03-01T00:51:04;101384.41;;;9.34;77.05
55291;BME280;41155;39.768;2.712;2023-03-01T00:53:30;101363.69;;;9.34;76.33
55291;BME280;41155;39.768;2.712;2023-03-01T00:55:57;101368.03;;;9.35;75.88
55291;BME280;41155;39.768;2.712;2023-03-01T00:58:23;101380.75;;;9.46;76.19
55291;BME280;41155;39.768;2.712;2023-03-01T01:00:48;101366.31;;;9.41;76.97
55291;BME280;41155;39.768;2.712;2023-03-01T01:03:14;101368.09;;;9.47;76.26
55291;BME280;41155;39.768;2.712;2023-03-01T01:05:39;101337.75;;;9.21;76.30
55291;BME280;41155;39.768;2.712;2023-03-01T01:08:05;101352.72;;;9.17;76.85
55291;BME280;41155;39.768;2.712;2023-03-01T01:10:33;101369.69;;;9.36;76.58
55291;BME280;41155;39.768;2.712;2023-03-01T01:12:59;101333.47;;;9.14;76.54
55291;BME280;41155;39.768;2.712;2023-03-01T01:15:25;101369.06;;;9.34;77.25
55291;BME280;41155;39.768;2.712;2023-03-01T01:17:50;101360.63;;;9.31;77.23
55291;BME280;41155;39.768;2.712;2023-03-01T01:20:17;101365.84;;;9.44;77.44
55291;BME280;41155;39.768;2.712;2023-03-01T01:22:43;101335.81;;;9.10;77.12
55291;BME280;41155;39.768;2.712;2023-03-01T01:25:09;101366.78;;;9.38;77.36
55291;BME280;41155;39.768;2.712;2023-03-01T01:27:34;101353.41;;;9.43;77.41
55291;BME280;41155;39.768;2.712;2023-03-01T01:30:00;101341.53;;;9.32;76.84
55291;BME280;41155;39.768;2.712;2023-03-01T01:32:29;101350.59;;;9.19;77.18
55291;BME280;41155;39.768;2.712;2023-03-01T01:34:54;101349.28;;;9.10;78.62
55291;BME280;41155;39.768;2.712;2023-03-01T01:37:20;101357.50;;;9.15;79.16
55291;BME280;41155;39.768;2.712;2023-03-01T01:39:45;101357.25;;;9.17;78.61
55291;BME280;41155;39.768;2.712;2023-03-01T01:42:15;101368.06;;;8.98;79.58
55291;BME280;41155;39.768;2.712;2023-03-01T01:44:44;101357.81;;;9.07;79.61
55291;BME280;41155;39.768;2.712;2023-03-01T01:47:18;101354.44;;;9.12;79.38
55291;BME280;41155;39.768;2.712;2023-03-01T01:49:54;101331.34;;;8.86;80.16
55291;BME280;41155;39.768;2.712;2023-03-01T01:52:33;101346.16;;;8.95;80.50
55291;BME280;41155;39.768;2.712;2023-03-01T01:55:04;101345.09;;;8.96;81.41
55291;BME280;41155;39.768;2.712;2023-03-01T01:57:37;101337.47;;;8.93;81.44
55291;BME280;41155;39.768;2.712;2023-03-01T02:00:14;101350.41;;;8.84;81.58
55291;BME280;41155;39.768;2.712;2023-03-01T02:02:40;101328.69;;;8.79;81.47
55291;BME280;41155;39.768;2.712;2023-03-01T02:05:22;101346.00;;;8.90;82.53
55291;BME280;41155;39.768;2.712;2023-03-01T02:07:51;101320.03;;;8.95;81.92
55291;BME280;41155;39.768;2.712;2023-03-01T02:10:17;101328.56;;;8.92;81.53
55291;BME280;41155;39.768;2.712;2023-03-01T02:12:43;101335.81;;;8.92;82.10
55291;BME280;41155;39.768;2.712;2023-03-01T02:15:09;101332.06;;;8.93;82.31
55291;BME280;41155;39.768;2.712;2023-03-01T02:17:35;101337.75;;;9.03;82.93
55291;BME280;41155;39.768;2.712;2023-03-01T02:20:23;101306.03;;;8.87;82.21
55291;BME280;41155;39.768;2.712;2023-03-01T02:22:53;101319.66;;;8.92;83.11
55291;BME280;41155;39.768;2.712;2023-03-01T02:26:03;101321.91;;;8.95;82.51
55291;BME280;41155;39.768;2.712;2023-03-01T02:28:35;101326.22;;;8.96;82.91
55291;BME280;41155;39.768;2.712;2023-03-01T02:31:01;101299.75;;;8.93;83.25
55291;BME280;41155;39.768;2.712;2023-03-01T02:33:45;101314.94;;;9.05;82.63
55291;BME280;41155;39.768;2.712;2023-03-01T02:36:18;101304.84;;;9.01;82.62
55291;BME280;41155;39.768;2.712;2023-03-01T02:38:44;101304.84;;;9.01;82.48
55291;BME280;41155;39.768;2.712;2023-03-01T02:41:12;101318.41;;;8.94;82.52
55291;BME280;41155;39.768;2.712;2023-03-01T02:43:39;101312.03;;;8.89;82.69
55291;BME280;41155;39.768;2.712;2023-03-01T02:46:14;101312.16;;;8.94;82.99
55291;BME280;41155;39.768;2.712;2023-03-01T02:48:47;101306.41;;;8.90;83.02
55291;BME280;41155;39.768;2.712;2023-03-01T02:51:17;101307.81;;;8.93;83.19
55291;BME280;41155;39.768;2.712;2023-03-01T02:54:13;101299.59;;;8.88;82.74
55291;BME280;41155;39.768;2.712;2023-03-01T02:56:41;101285.09;;;8.70;82.98
55291;BME280;41155;39.768;2.712;2023-03-01T02:59:08;101277.47;;;8.67;82.59
55291;BME280;41155;39.768;2.712;2023-03-01T03:01:34;101286.31;;;8.74;82.08
55291;BME280;41155;39.768;2.712;2023-03-01T03:04:07;101289.56;;;8.76;82.06
55291;BME280;41155;39.768;2.712;2023-03-01T03:06:33;101291.75;;;8.68;81.46
55291;BME280;41155;39.768;2.712;2023-03-01T03:08:59;101279.72;;;8.89;80.74
55291;BME280;41155;39.768;2.712;2023-03-01T03:11:26;101294.22;;;8.88;81.09
55291;BME280;41155;39.768;2.712;2023-03-01T03:13:51;101268.19;;;8.81;80.93
55291;BME280;41155;39.768;2.712;2023-03-01T03:16:17;101282.88;;;8.86;81.36
55291;BME280;41155;39.768;2.712;2023-03-01T03:18:43;101258.13;;;8.77;80.58
55291;BME280;41155;39.768;2.712;2023-03-01T03:21:10;101286.38;;;8.86;79.64
55291;BME280;41155;39.768;2.712;2023-03-01T03:23:37;101267.72;;;8.85;80.22
55291;BME280;41155;39.768;2.712;2023-03-01T03:26:04;101293.91;;;8.96;80.20
55291;BME280;41155;39.768;2.712;2023-03-01T03:28:33;101279.25;;;8.92;80.12
55291;BME280;41155;39.768;2.712;2023-03-01T03:31:00;101282.31;;;8.95;80.08
55291;BME280;41155;39.768;2.712;2023-03-01T03:33:31;101299.94;;;8.79;80.49
55291;BME280;41155;39.768;2.712;2023-03-01T03:35:57;101301.31;;;8.82;81.33
55291;BME280;41155;39.768;2.712;2023-03-01T03:38:22;101296.78;;;8.82;81.14
55291;BME280;41155;39.768;2.712;2023-03-01T03:41:04;101286.72;;;8.53;80.77
55291;BME280;41155;39.768;2.712;2023-03-01T03:43:32;101292.19;;;8.46;77.89
55291;BME280;41155;39.768;2.712;2023-03-01T03:45:58;101289.84;;;8.31;77.91
55291;BME280;41155;39.768;2.712;2023-03-01T03:48:24;101312.38;;;8.55;78.21
55291;BME280;41155;39.768;2.712;2023-03-01T03:50:55;101312.53;;;8.60;78.54
55291;BME280;41155;39.768;2.712;2023-03-01T03:53:23;101298.34;;;8.53;78.01
55291;BME280;41155;39.768;2.712;2023-03-01T03:55:48;101319.72;;;8.48;77.46
55291;BME280;41155;39.768;2.712;2023-03-01T03:58:14;101321.34;;;8.49;76.72
55291;BME280;41155;39.768;2.712;2023-03-01T04:00:43;101313.53;;;8.48;76.16
55291;BME280;41155;39.768;2.712;2023-03-01T04:03:10;101325.03;;;8.55;75.07
55291;BME280;41155;39.768;2.712;2023-03-01T04:05:37;101323.16;;;8.55;75.20
55291;BME280;41155;39.768;2.712;2023-03-01T04:08:03;101316.66;;;8.63;73.54
55291;BME280;41155;39.768;2.712;2023-03-01T04:10:42;101315.44;;;8.59;73.57
55291;BME280;41155;39.768;2.712;2023-03-01T04:13:16;101311.28;;;8.63;74.01
55291;BME280;41155;39.768;2.712;2023-03-01T04:15:45;101307.31;;;8.66;74.50
55291;BME280;41155;39.768;2.712;2023-03-01T04:18:13;101319.50;;;8.68;74.73
55291;BME280;41155;39.768;2.712;2023-03-01T04:20:39;101313.53;;;8.66;74.66
55291;BME280;41155;39.768;2.712;2023-03-01T04:23:07;101280.44;;;8.41;74.67
55291;BME280;41155;39.768;2.712;2023-03-01T04:28:14;101300.06;;;8.48;74.19
55291;BME280;41155;39.768;2.712;2023-03-01T04:30:40;101311.13;;;8.58;74.23
55291;BME280;41155;39.768;2.712;2023-03-01T04:33:13;101307.31;;;8.66;74.14
55291;BME280;41155;39.768;2.712;2023-03-01T04:35:39;101303.88;;;8.58;73.83
55291;BME280;41155;39.768;2.712;2023-03-01T04:38:06;101297.81;;;8.63;73.83
55291;BME280;41155;39.768;2.712;2023-03-01T04:40:32;101308.66;;;8.75;73.55
55291;BME280;41155;39.768;2.712;2023-03-01T04:42:58;101284.28;;;8.70;74.40
55291;BME280;41155;39.768;2.712;2023-03-01T04:45:23;101310.31;;;8.94;73.06
55291;BME280;41155;39.768;2.712;2023-03-01T04:47:49;101299.97;;;8.73;73.05
55291;BME280;41155;39.768;2.712;2023-03-01T04:50:18;101268.34;;;8.50;72.90
55291;BME280;41155;39.768;2.712;2023-03-01T04:52:46;101282.78;;;8.74;73.78
55291;BME280;41155;39.768;2.712;2023-03-01T04:55:11;101313.06;;;8.88;74.62
55291;BME280;41155;39.768;2.712;2023-03-01T04:57:38;101310.75;;;8.91;74.01
55291;BME280;41155;39.768;2.712;2023-03-01T05:00:04;101303.13;;;8.88;74.38
55291;BME280;41155;39.768;2.712;2023-03-01T05:02:56;101264.97;;;8.73;75.14
55291;BME280;41155;39.768;2.712;2023-03-01T05:05:33;101293.63;;;8.86;74.38
55291;BME280;41155;39.768;2.712;2023-03-01T05:08:01;101308.88;;;8.92;75.48
55291;BME280;41155;39.768;2.712;2023-03-01T05:10:29;101298.31;;;8.90;75.69
55291;BME280;41155;39.768;2.712;2023-03-01T05:12:55;101308.38;;;8.83;76.12
55291;BME280;41155;39.768;2.712;2023-03-01T05:15:22;101317.13;;;8.97;77.33
55291;BME280;41155;39.768;2.712;2023-03-01T05:17:51;101314.19;;;8.98;75.16
55291;BME280;41155;39.768;2.712;2023-03-01T05:20:17;101315.09;;;8.92;75.66
55291;BME280;41155;39.768;2.712;2023-03-01T05:22:43;101311.44;;;8.87;76.47
55291;BME280;41155;39.768;2.712;2023-03-01T05:25:08;101302.63;;;8.79;75.17
55291;BME280;41155;39.768;2.712;2023-03-01T05:27:35;101317.53;;;8.94;76.29
55291;BME280;41155;39.768;2.712;2023-03-01T05:30:01;101308.53;;;8.88;76.04
55291;BME280;41155;39.768;2.712;2023-03-01T05:32:41;101319.22;;;8.95;75.58
55291;BME280;41155;39.768;2.712;2023-03-01T05:35:09;101316.91;;;8.80;75.06
55291;BME280;41155;39.768;2.712;2023-03-01T05:37:42;101305.53;;;8.78;76.73
55291;BME280;41155;39.768;2.712;2023-03-01T05:40:13;101326.41;;;8.82;77.11
55291;BME280;41155;39.768;2.712;2023-03-01T05:42:46;101308.13;;;8.85;77.12
55291;BME280;41155;39.768;2.712;2023-03-01T05:45:13;101322.88;;;8.82;76.58
55291;BME280;41155;39.768;2.712;2023-03-01T05:47:43;101322.03;;;8.81;76.78
55291;BME280;41155;39.768;2.712;2023-03-01T05:50:15;101333.09;;;8.73;77.68
55291;BME280;41155;39.768;2.712;2023-03-01T05:52:50;101328.94;;;8.77;76.59
55291;BME280;41155;39.768;2.712;2023-03-01T05:55:20;101318.28;;;8.64;77.33
55291;BME280;41155;39.768;2.712;2023-03-01T05:57:46;101336.94;;;8.66;78.10
55291;BME280;41155;39.768;2.712;2023-03-01T06:00:14;101332.97;;;8.68;78.66
55291;BME280;41155;39.768;2.712;2023-03-01T06:02:40;101327.88;;;8.60;78.02
55291;BME280;41155;39.768;2.712;2023-03-01T06:05:07;101330.28;;;8.68;78.42
55291;BME280;41155;39.768;2.712;2023-03-01T06:07:33;101295.34;;;8.43;78.75
55291;BME280;41155;39.768;2.712;2023-03-01T06:09:58;101328.78;;;8.72;77.44
55291;BME280;41155;39.768;2.712;2023-03-01T06:12:24;101325.47;;;8.70;77.82
55291;BME280;41155;39.768;2.712;2023-03-01T06:14:49;101330.88;;;8.70;78.46
55291;BME280;41155;39.768;2.712;2023-03-01T06:17:15;101332.81;;;8.81;79.08
55291;BME280;41155;39.768;2.712;2023-03-01T06:19:40;101332.53;;;8.71;78.88
55291;BME280;41155;39.768;2.712;2023-03-01T06:22:06;101318.75;;;8.61;79.59
55291;BME280;41155;39.768;2.712;2023-03-01T06:24:32;101315.44;;;8.59;79.87
55291;BME280;41155;39.768;2.712;2023-03-01T06:26:58;101338.81;;;8.65;80.11
55291;BME280;41155;39.768;2.712;2023-03-01T06:29:23;101330.72;;;8.65;80.30
55291;BME280;41155;39.768;2.712;2023-03-01T06:31:49;101334.00;;;8.67;80.55
55291;BME280;41155;39.768;2.712;2023-03-01T06:34:14;101332.28;;;8.73;80.48
55291;BME280;41155;39.768;2.712;2023-03-01T06:36:40;101307.25;;;8.54;80.83
55291;BME280;41155;39.768;2.712;2023-03-01T06:39:06;101338.88;;;8.77;79.66
55291;BME280;41155;39.768;2.712;2023-03-01T06:41:32;101333.72;;;8.75;78.13
55291;BME280;41155;39.768;2.712;2023-03-01T06:43:58;101326.97;;;8.66;79.22
55291;BME280;41155;39.768;2.712;2023-03-01T06:46:24;101323.09;;;8.62;79.53
55291;BME280;41155;39.768;2.712;2023-03-01T06:48:50;101322.94;;;8.57;79.86
55291;BME280;41155;39.768;2.712;2023-03-01T06:51:15;101345.09;;;8.77;80.12
55291;BME280;41155;39.768;2.712;2023-03-01T06:53:40;101316.88;;;8.62;78.19
55291;BME280;41155;39.768;2.712;2023-03-01T06:56:06;101351.59;;;8.70;79.27
55291;BME280;41155;39.768;2.712;2023-03-01T06:58:31;101349.25;;;8.73;80.33
55291;BME280;41155;39.768;2.712;2023-03-01T07:00:57;101326.22;;;8.59;80.65
55291;BME280;41155;39.768;2.712;2023-03-01T07:03:22;101366.03;;;8.75;80.46
55291;BME280;41155;39.768;2.712;2023-03-01T07:05:49;101361.84;;;8.79;80.57
55291;BME280;41155;39.768;2.712;2023-03-01T07:08:18;101333.56;;;8.70;79.19
55291;BME280;41155;39.768;2.712;2023-03-01T07:10:44;101325.94;;;8.67;79.04
55291;BME280;41155;39.768;2.712;2023-03-01T07:13:10;101369.41;;;8.89;79.24
55291;BME280;41155;39.768;2.712;2023-03-01T07:15:35;101368.59;;;8.89;79.26
55291;BME280;41155;39.768;2.712;2023-03-01T07:18:01;101371.53;;;9.05;78.47
55291;BME280;41155;39.768;2.712;2023-03-01T07:20:26;101379.06;;;9.15;78.57
55291;BME280;41155;39.768;2.712;2023-03-01T07:22:53;101371.19;;;8.95;78.27
55291;BME280;41155;39.768;2.712;2023-03-01T07:25:19;101372.63;;;8.98;78.95
55291;BME280;41155;39.768;2.712;2023-03-01T07:27:49;101371.81;;;8.97;78.99
55291;BME280;41155;39.768;2.712;2023-03-01T07:30:14;101388.50;;;9.06;79.33
55291;BME280;41155;39.768;2.712;2023-03-01T07:32:40;101362.66;;;8.98;79.04
55291;BME280;41155;39.768;2.712;2023-03-01T07:35:06;101390.00;;;9.20;79.00
55291;BME280;41155;39.768;2.712;2023-03-01T07:37:31;101401.28;;;9.29;75.90
55291;BME280;41155;39.768;2.712;2023-03-01T07:39:57;101382.81;;;9.14;75.93
55291;BME280;41155;39.768;2.712;2023-03-01T07:42:22;101397.63;;;9.23;76.39
55291;BME280;41155;39.768;2.712;2023-03-01T07:44:48;101403.91;;;9.36;74.84
55291;BME280;41155;39.768;2.712;2023-03-01T07:47:13;101403.59;;;9.44;75.55
55291;BME280;41155;39.768;2.712;2023-03-01T07:49:39;101386.66;;;9.37;75.35
55291;BME280;41155;39.768;2.712;2023-03-01T07:52:04;101392.03;;;9.55;75.84
55291;BME280;41155;39.768;2.712;2023-03-01T07:54:30;101382.59;;;9.64;75.25
55291;BME280;41155;39.768;2.712;2023-03-01T07:56:57;101412.72;;;10.03;72.85
55291;BME280;41155;39.768;2.712;2023-03-01T07:59:23;101414.38;;;10.04;72.04
55291;BME280;41155;39.768;2.712;2023-03-01T08:01:54;101406.50;;;10.03;72.84
55291;BME280;41155;39.768;2.712;2023-03-01T08:04:20;101415.22;;;10.16;72.92
55291;BME280;41155;39.768;2.712;2023-03-01T08:06:45;101371.41;;;9.91;72.45
55291;BME280;41155;39.768;2.712;2023-03-01T08:09:11;101407.75;;;10.18;73.47
55291;BME280;41155;39.768;2.712;2023-03-01T08:11:36;101401.59;;;10.11;71.15
55291;BME280;41155;39.768;2.712;2023-03-01T08:14:02;101415.44;;;10.15;71.91
55291;BME280;41155;39.768;2.712;2023-03-01T08:16:28;101422.88;;;10.19;72.76
55291;BME280;41155;39.768;2.712;2023-03-01T08:18:53;101421.59;;;10.22;72.10
55291;BME280;41155;39.768;2.712;2023-03-01T08:21:22;101429.03;;;10.38;72.41
55291;BME280;41155;39.768;2.712;2023-03-01T08:23:47;101420.09;;;10.38;72.80
55291;BME280;41155;39.768;2.712;2023-03-01T08:26:14;101422.81;;;10.50;72.63
55291;BME280;41155;39.768;2.712;2023-03-01T08:28:41;101426.38;;;10.50;71.94
55291;BME280;41155;39.768;2.712;2023-03-01T08:31:37;101431.19;;;10.60;71.30
55291;BME280;41155;39.768;2.712;2023-03-01T08:34:05;101431.66;;;10.69;68.91
55291;BME280;41155;39.768;2.712;2023-03-01T08:36:34;101430.97;;;10.85;69.03
55291;BME280;41155;39.768;2.712;2023-03-01T08:39:01;101415.31;;;10.99;67.92
55291;BME280;41155;39.768;2.712;2023-03-01T08:41:26;101415.16;;;11.29;65.38
55291;BME280;41155;39.768;2.712;2023-03-01T08:43:52;101439.13;;;11.77;64.80
55291;BME280;41155;39.768;2.712;2023-03-01T08:46:24;101419.75;;;11.69;63.18
55291;BME280;41155;39.768;2.712;2023-03-01T08:48:49;101430.63;;;11.74;63.66
55291;BME280;41155;39.768;2.712;2023-03-01T08:51:17;101431.47;;;11.86;64.76
55291;BME280;41155;39.768;2.712;2023-03-01T08:53:43;101421.34;;;13.61;57.30
55291;BME280;41155;39.768;2.712;2023-03-01T08:56:10;101396.72;;;13.67;56.83
55291;BME280;41155;39.768;2.712;2023-03-01T08:58:35;101426.03;;;14.52;53.71
55291;BME280;41155;39.768;2.712;2023-03-01T09:01:06;101417.13;;;13.97;52.87
55291;BME280;41155;39.768;2.712;2023-03-01T09:03:32;101422.25;;;13.66;52.75
55291;BME280;41155;39.768;2.712;2023-03-01T09:06:01;101416.59;;;15.02;50.51
55291;BME280;41155;39.768;2.712;2023-03-01T09:08:28;101401.56;;;15.47;48.97
55291;BME280;41155;39.768;2.712;2023-03-01T09:10:54;101418.88;;;14.73;49.06
55291;BME280;41155;39.768;2.712;2023-03-01T09:13:19;101420.19;;;14.06;50.33
55291;BME280;41155;39.768;2.712;2023-03-01T09:15:44;101409.72;;;14.19;49.14
55291;BME280;41155;39.768;2.712;2023-03-01T09:18:10;101410.63;;;14.30;51.15
55291;BME280;41155;39.768;2.712;2023-03-01T09:20:36;101408.91;;;14.51;50.45
55291;BME280;41155;39.768;2.712;2023-03-01T09:23:01;101401.25;;;14.80;50.27
55291;BME280;41155;39.768;2.712;2023-03-01T09:25:27;101407.66;;;15.11;50.19
55291;BME280;41155;39.768;2.712;2023-03-01T09:27:54;101401.72;;;14.72;47.98
55291;BME280;41155;39.768;2.712;2023-03-01T09:30:20;101402.78;;;14.66;48.94
55291;BME280;41155;39.768;2.712;2023-03-01T09:32:45;101390.56;;;14.68;48.74
55291;BME280;41155;39.768;2.712;2023-03-01T09:35:12;101395.75;;;14.75;48.60
55291;BME280;41155;39.768;2.712;2023-03-01T09:37:38;101380.69;;;14.57;49.16
55291;BME280;41155;39.768;2.712;2023-03-01T09:40:06;101380.25;;;14.71;49.55
55291;BME280;41155;39.768;2.712;2023-03-01T09:42:34;101360.44;;;14.38;48.35
55291;BME280;41155;39.768;2.712;2023-03-01T09:45:06;101371.00;;;14.72;47.80
55291;BME280;41155;39.768;2.712;2023-03-01T09:47:36;101381.50;;;15.00;47.96
55291;BME280;41155;39.768;2.712;2023-03-01T09:50:17;101381.63;;;15.26;46.82
55291;BME280;41155;39.768;2.712;2023-03-01T09:53:07;101386.69;;;15.75;47.62
55291;BME280;41155;39.768;2.712;2023-03-01T10:00:53;101380.75;;;17.35;42.35
55291;BME280;41155;39.768;2.712;2023-03-01T10:09:29;101353.09;;;21.23;34.48
55291;BME280;41155;39.768;2.712;2023-03-01T10:11:38;101371.47;;;24.03;31.57
55291;BME280;41155;39.768;2.712;2023-03-01T10:16:55;101367.28;;;27.45;26.57
55291;BME280;41155;39.768;2.712;2023-03-01T10:24:42;101372.44;;;29.42;23.03
55291;BME280;41155;39.768;2.712;2023-03-01T10:27:23;101374.00;;;29.59;22.00
55291;BME280;41155;39.768;2.712;2023-03-01T10:29:58;101374.13;;;30.67;21.25
55291;BME280;41155;39.768;2.712;2023-03-01T10:32:29;101376.72;;;30.33;20.75
55291;BME280;41155;39.768;2.712;2023-03-01T10:34:54;101364.66;;;32.59;19.26
55291;BME280;41155;39.768;2.712;2023-03-01T10:37:21;101368.13;;;32.46;18.00
55291;BME280;41155;39.768;2.712;2023-03-01T10:40:05;101369.13;;;33.19;17.72
55291;BME280;41155;39.768;2.712;2023-03-01T10:42:37;101364.16;;;30.00;19.93
55291;BME280;41155;39.768;2.712;2023-03-01T10:45:36;101365.63;;;32.78;18.60
55291;BME280;41155;39.768;2.712;2023-03-01T10:48:24;101373.78;;;32.49;17.51
55291;BME280;41155;39.768;2.712;2023-03-01T10:51:06;101371.81;;;32.57;17.99
55291;BME280;41155;39.768;2.712;2023-03-01T10:53:35;101369.09;;;33.16;17.78
55291;BME280;41155;39.768;2.712;2023-03-01T10:58:29;101373.44;;;33.90;16.70
55291;BME280;41155;39.768;2.712;2023-03-01T11:00:58;101363.47;;;32.19;17.90
55291;BME280;41155;39.768;2.712;2023-03-01T11:03:37;101383.03;;;33.85;16.35
55291;BME280;41155;39.768;2.712;2023-03-01T11:06:19;101385.91;;;33.23;16.85
55291;BME280;41155;39.768;2.712;2023-03-01T11:08:50;101379.56;;;34.38;16.44
55291;BME280;41155;39.768;2.712;2023-03-01T11:11:23;101388.84;;;34.60;16.73
55291;BME280;41155;39.768;2.712;2023-03-01T11:16:35;101380.81;;;34.62;16.69
55291;BME280;41155;39.768;2.712;2023-03-01T11:19:18;101369.50;;;35.30;15.73
55291;BME280;41155;39.768;2.712;2023-03-01T11:24:31;101372.75;;;32.31;17.40
55291;BME280;41155;39.768;2.712;2023-03-01T11:27:02;101374.69;;;32.23;16.90
55291;BME280;41155;39.768;2.712;2023-03-01T11:29:38;101371.94;;;34.14;15.19
55291;BME280;41155;39.768;2.712;2023-03-01T11:32:08;101371.66;;;33.49;16.79
55291;BME280;41155;39.768;2.712;2023-03-01T11:34:47;101377.03;;;32.58;16.86
55291;BME280;41155;39.768;2.712;2023-03-01T11:37:26;101363.53;;;32.27;17.49
55291;BME280;41155;39.768;2.712;2023-03-01T11:40:20;101364.13;;;30.89;17.89
55291;BME280;41155;39.768;2.712;2023-03-01T11:45:23;101354.56;;;32.07;17.73
55291;BME280;41155;39.768;2.712;2023-03-01T11:50:52;101351.19;;;32.31;17.47
55291;BME280;41155;39.768;2.712;2023-03-01T11:56:25;101356.66;;;33.09;17.78
55291;BME280;41155;39.768;2.712;2023-03-01T12:06:57;101342.44;;;31.01;18.05
55291;BME280;41155;39.768;2.712;2023-03-01T12:14:35;101340.16;;;32.05;17.70
55291;BME280;41155;39.768;2.712;2023-03-01T12:22:43;101335.63;;;33.41;16.71
55291;BME280;41155;39.768;2.712;2023-03-01T12:25:41;101335.69;;;33.48;16.16
55291;BME280;41155;39.768;2.712;2023-03-01T12:42:59;101322.63;;;31.37;17.06
55291;BME280;41155;39.768;2.712;2023-03-01T12:50:42;101304.50;;;32.83;15.91
55291;BME280;41155;39.768;2.712;2023-03-01T12:53:22;101305.06;;;34.34;15.02
55291;BME280;41155;39.768;2.712;2023-03-01T12:55:50;101292.19;;;31.92;16.62
55291;BME280;41155;39.768;2.712;2023-03-01T12:58:32;101308.69;;;34.13;15.23
55291;BME280;41155;39.768;2.712;2023-03-01T13:01:05;101312.72;;;30.17;18.90
55291;BME280;41155;39.768;2.712;2023-03-01T13:09:22;101297.59;;;31.14;17.68
55291;BME280;41155;39.768;2.712;2023-03-01T13:11:51;101277.63;;;31.12;17.69
55291;BME280;41155;39.768;2.712;2023-03-01T13:16:45;101253.38;;;30.59;18.76
55291;BME280;41155;39.768;2.712;2023-03-01T13:19:21;101276.78;;;31.38;17.27
55291;BME280;41155;39.768;2.712;2023-03-01T13:21:49;101278.09;;;31.85;17.58
55291;BME280;41155;39.768;2.712;2023-03-01T13:24:40;101269.44;;;31.93;17.75
55291;BME280;41155;39.768;2.712;2023-03-01T13:29:51;101266.13;;;30.87;17.86
55291;BME280;41155;39.768;2.712;2023-03-01T13:34:47;101263.66;;;29.86;19.36
55291;BME280;41155;39.768;2.712;2023-03-01T13:37:22;101261.94;;;30.73;18.28
55291;BME280;41155;39.768;2.712;2023-03-01T13:39:48;101249.44;;;31.20;17.95
55291;BME280;41155;39.768;2.712;2023-03-01T13:42:37;101261.59;;;30.25;18.51
55291;BME280;41155;39.768;2.712;2023-03-01T13:45:35;101256.16;;;29.67;19.19
55291;BME280;41155;39.768;2.712;2023-03-01T13:48:08;101260.38;;;28.04;20.94
55291;BME280;41155;39.768;2.712;2023-03-01T13:50:43;101248.84;;;29.20;20.14
55291;BME280;41155;39.768;2.712;2023-03-01T13:53:17;101250.94;;;28.40;20.46
55291;BME280;41155;39.768;2.712;2023-03-01T13:55:51;101244.28;;;26.72;22.44
55291;BME280;41155;39.768;2.712;2023-03-01T13:58:26;101242.59;;;27.20;21.63
55291;BME280;41155;39.768;2.712;2023-03-01T14:03:28;101254.81;;;28.04;21.60
55291;BME280;41155;39.768;2.712;2023-03-01T14:06:12;101250.44;;;28.19;21.55
55291;BME280;41155;39.768;2.712;2023-03-01T14:08:38;101246.56;;;28.07;20.82
55291;BME280;41155;39.768;2.712;2023-03-01T14:19:35;101244.53;;;25.52;23.85
55291;BME280;41155;39.768;2.712;2023-03-01T14:22:22;101245.72;;;24.79;24.97
55291;BME280;41155;39.768;2.712;2023-03-01T14:24:52;101238.22;;;25.30;24.63
55291;BME280;41155;39.768;2.712;2023-03-01T14:27:20;101220.59;;;24.42;25.59
55291;BME280;41155;39.768;2.712;2023-03-01T14:30:15;101229.41;;;24.27;25.84
55291;BME280;41155;39.768;2.712;2023-03-01T14:33:01;101189.25;;;23.44;26.63
55291;BME280;41155;39.768;2.712;2023-03-01T14:35:30;101234.25;;;22.78;27.80
55291;BME280;41155;39.768;2.712;2023-03-01T14:37:56;101222.84;;;22.14;27.85
55291;BME280;41155;39.768;2.712;2023-03-01T14:40:43;101228.88;;;21.26;30.15
55291;BME280;41155;39.768;2.712;2023-03-01T14:43:13;101223.75;;;20.61;30.35
55291;BME280;41155;39.768;2.712;2023-03-01T14:45:47;101232.56;;;20.02;30.89
55291;BME280;41155;39.768;2.712;2023-03-01T14:48:14;101210.78;;;19.27;32.53
55291;BME280;41155;39.768;2.712;2023-03-01T14:50:42;101224.56;;;19.22;33.59